createdAt,value
2018-04-08T00:01:13.292Z,78.20
2018-04-08T00:05:16.055Z,78.50
2018-04-08T00:09:18.913Z,78.50
2018-04-08T00:13:22.915Z,78.90
2018-04-08T00:17:25.654Z,79.20
2018-04-08T00:21:29.211Z,78.90
2018-04-08T00:25:32.001Z,78.90
2018-04-08T00:29:34.796Z,78.20
2018-04-08T00:33:37.615Z,78.60
2018-04-08T00:37:41.369Z,79.20
2018-04-08T00:41:44.105Z,79.20
2018-04-08T00:45:46.951Z,79.70
2018-04-08T00:49:49.828Z,78.70
2018-04-08T00:54:04.645Z,79.30
2018-04-08T00:58:08.211Z,79.40
2018-04-08T01:02:19.152Z,79.40
2018-04-08T01:06:21.902Z,78.80
2018-04-08T01:10:24.788Z,78.80
2018-04-08T01:14:27.552Z,79.50
2018-04-08T01:18:30.596Z,80.20
2018-04-08T01:22:33.380Z,79.70
2018-04-08T01:26:37.169Z,80.10
2018-04-08T01:30:39.928Z,80.10
2018-04-08T01:34:42.719Z,80.80
2018-04-08T01:38:45.505Z,80.50
2018-04-08T01:42:48.218Z,80.60
2018-04-08T01:46:53.172Z,80.20
2018-04-08T01:50:55.896Z,80.20
2018-04-08T01:54:58.753Z,80.70
2018-04-08T01:59:01.631Z,81.00
2018-04-08T02:03:04.371Z,81.40
2018-04-08T02:07:07.198Z,82.00
2018-04-08T02:11:09.948Z,81.30
2018-04-08T02:15:12.778Z,80.50
2018-04-08T02:19:16.250Z,81.60
2018-04-08T02:23:19.790Z,81.90
2018-04-08T02:27:23.351Z,81.30
2018-04-08T02:31:26.572Z,81.30
2018-04-08T02:35:29.675Z,81.20
2018-04-08T02:39:33.293Z,82.10
2018-04-08T02:43:35.996Z,81.90
2018-04-08T02:47:38.898Z,81.90
2018-04-08T02:51:41.648Z,81.70
2018-04-08T02:55:44.445Z,82.00
2018-04-08T02:59:47.938Z,81.90
2018-04-08T03:03:50.779Z,81.90
2018-04-08T03:07:53.513Z,81.90
2018-04-08T03:11:56.285Z,81.90
2018-04-08T03:15:59.265Z,82.00
2018-04-08T03:20:01.995Z,81.40
2018-04-08T03:24:04.788Z,82.00
2018-04-08T03:28:07.636Z,81.90
2018-04-08T03:32:11.116Z,82.00
2018-04-08T03:36:18.702Z,82.00
2018-04-08T03:40:21.498Z,81.90
2018-04-08T03:44:29.085Z,82.00
2018-04-08T03:48:31.932Z,81.90
2018-04-08T03:52:34.689Z,81.90
2018-04-08T03:56:43.827Z,81.90
2018-04-08T04:00:46.649Z,81.90
2018-04-08T04:04:49.569Z,81.90
2018-04-08T04:08:52.415Z,81.90
2018-04-08T04:12:55.224Z,81.90
2018-04-08T04:17:02.134Z,81.90
2018-04-08T04:21:20.066Z,81.70
2018-04-08T04:29:58.399Z,82.40
2018-04-08T04:34:01.152Z,82.30
2018-04-08T04:38:03.939Z,81.70
2018-04-08T04:42:06.671Z,81.70
2018-04-08T04:46:12.734Z,82.30
2018-04-08T04:50:15.687Z,82.60
2018-04-08T04:54:18.457Z,83.40
2018-04-08T04:58:21.220Z,83.40
2018-04-08T05:02:27.355Z,84.30
2018-04-08T05:06:31.921Z,85.00
2018-04-08T05:10:34.716Z,85.00
2018-04-08T05:14:37.485Z,85.60
2018-04-08T05:18:41.065Z,84.50
2018-04-08T05:22:43.923Z,84.40
2018-04-08T05:26:48.311Z,82.60
2018-04-08T05:30:51.103Z,82.00
2018-04-08T05:34:57.381Z,81.40
2018-04-08T05:39:00.123Z,80.50
2018-04-08T05:43:02.920Z,81.30
2018-04-08T05:47:06.504Z,81.20
2018-04-08T05:51:09.388Z,81.10
2018-04-08T05:55:12.168Z,80.10
2018-04-08T05:59:15.090Z,78.70
2018-04-08T06:03:17.837Z,78.20
2018-04-08T06:07:20.587Z,78.30
2018-04-08T06:11:23.387Z,77.10
2018-04-08T06:15:26.379Z,76.70
2018-04-08T06:19:30.011Z,76.90
2018-04-08T06:23:34.832Z,76.90
2018-04-08T06:27:37.797Z,75.60
2018-04-08T06:31:40.595Z,72.90
2018-04-08T06:35:43.437Z,72.20
2018-04-08T06:39:52.041Z,72.40
2018-04-08T06:43:54.825Z,71.30
2018-04-08T06:47:57.770Z,69.40
2018-04-08T06:52:02.286Z,70.10
2018-04-08T06:56:05.043Z,69.90
2018-04-08T07:00:08.637Z,68.20
2018-04-08T07:04:11.449Z,68.20
2018-04-08T07:08:14.467Z,70.60
2018-04-08T07:12:17.290Z,70.00
2018-04-08T07:16:20.037Z,69.20
2018-04-08T07:20:22.757Z,69.80
2018-04-08T07:24:25.682Z,70.40
2018-04-08T07:28:28.506Z,68.70
2018-04-08T07:32:31.223Z,67.20
2018-04-08T07:36:35.970Z,68.50
2018-04-08T07:40:38.715Z,67.40
2018-04-08T07:44:41.795Z,65.60
2018-04-08T07:48:46.934Z,65.30
2018-04-08T07:52:50.097Z,67.90
2018-04-08T07:56:52.802Z,66.30
2018-04-08T08:00:55.544Z,67.40
2018-04-08T08:04:58.397Z,66.70
2018-04-08T08:09:01.113Z,65.90
2018-04-08T08:13:05.691Z,66.70
2018-04-08T08:17:08.436Z,65.80
2018-04-08T08:21:11.385Z,63.90
2018-04-08T08:25:14.152Z,64.10
2018-04-08T08:29:17.684Z,61.60
2018-04-08T08:33:20.510Z,61.60
2018-04-08T08:37:23.246Z,59.60
2018-04-08T08:41:26.011Z,58.70
2018-04-08T08:45:28.745Z,58.50
2018-04-08T08:49:31.584Z,60.00
2018-04-08T08:53:34.615Z,58.40
2018-04-08T08:57:37.346Z,58.00
2018-04-08T09:01:40.872Z,55.20
2018-04-08T09:05:44.551Z,57.20
2018-04-08T09:09:47.410Z,57.20
2018-04-08T09:13:50.352Z,53.60
2018-04-08T09:17:53.152Z,55.60
2018-04-08T09:22:01.585Z,56.00
2018-04-08T09:26:05.860Z,54.60
2018-04-08T09:30:08.838Z,55.30
2018-04-08T09:34:12.611Z,57.90
2018-04-08T09:38:15.468Z,58.60
2018-04-08T09:42:20.141Z,54.80
2018-04-08T09:46:23.002Z,54.80
2018-04-08T09:50:25.765Z,51.40
2018-04-08T09:54:28.626Z,55.90
2018-04-08T09:58:33.395Z,55.10
2018-04-08T10:02:38.158Z,53.90
2018-04-08T10:06:40.997Z,55.80
2018-04-08T10:10:43.750Z,55.90
2018-04-08T10:14:46.469Z,55.50
2018-04-08T10:18:50.141Z,52.60
2018-04-08T10:22:53.975Z,50.70
2018-04-08T10:26:56.707Z,50.70
2018-04-08T10:31:00.223Z,53.70
2018-04-08T10:35:03.780Z,52.40
2018-04-08T10:39:06.501Z,52.40
2018-04-08T10:43:09.214Z,50.00
2018-04-08T10:47:13.864Z,46.40
2018-04-08T10:51:17.505Z,47.00
2018-04-08T10:55:20.335Z,47.00
2018-04-08T10:59:23.067Z,48.40
2018-04-08T11:03:25.867Z,43.70
2018-04-08T11:07:28.594Z,44.60
2018-04-08T11:11:31.416Z,45.00
2018-04-08T11:15:34.222Z,42.20
2018-04-08T11:19:37.197Z,40.30
2018-04-08T11:23:40.231Z,40.70
2018-04-08T11:27:43.302Z,39.60
2018-04-08T11:31:46.046Z,37.50
2018-04-08T11:35:50.877Z,37.40
2018-04-08T11:39:53.679Z,35.50
2018-04-08T11:43:56.430Z,34.80
2018-04-08T11:47:59.935Z,35.60
2018-04-08T11:52:02.726Z,35.30
2018-04-08T11:56:06.225Z,34.70
2018-04-08T12:00:10.136Z,34.50
2018-04-08T12:04:12.950Z,34.30
2018-04-08T12:08:17.725Z,31.20
2018-04-08T12:12:20.463Z,33.60
2018-04-08T12:16:24.196Z,32.70
2018-04-08T12:20:26.931Z,34.20
2018-04-08T12:24:29.754Z,36.90
2018-04-08T12:28:32.664Z,33.50
2018-04-08T12:32:35.456Z,31.10
2018-04-08T12:36:38.223Z,29.40
2018-04-08T12:40:41.851Z,29.20
2018-04-08T12:44:44.604Z,29.20
2018-04-08T12:48:47.399Z,30.20
2018-04-08T12:52:50.145Z,33.40
2018-04-08T12:56:52.923Z,32.50
2018-04-08T13:00:56.457Z,34.40
2018-04-08T13:04:59.345Z,35.10
2018-04-08T13:09:02.112Z,31.50
2018-04-08T13:13:06.053Z,29.60
2018-04-08T13:17:08.836Z,29.60
2018-04-08T13:21:12.624Z,30.50
2018-04-08T13:25:15.365Z,31.10
2018-04-08T13:29:18.891Z,27.10
2018-04-08T13:33:23.741Z,27.10
2018-04-08T13:37:26.554Z,28.70
2018-04-08T13:41:36.099Z,27.20
2018-04-08T13:45:38.819Z,26.50
2018-04-08T13:49:42.562Z,25.00
2018-04-08T13:53:45.338Z,27.40
2018-04-08T13:57:48.055Z,26.40
2018-04-08T14:01:52.853Z,23.90
2018-04-08T14:05:55.741Z,23.60
2018-04-08T14:09:58.617Z,25.30
2018-04-08T14:14:02.190Z,23.90
2018-04-08T14:18:05.165Z,23.90
2018-04-08T14:22:07.873Z,26.10
2018-04-08T14:26:10.857Z,24.50
2018-04-08T14:30:13.810Z,23.10
2018-04-08T14:34:16.625Z,21.40
2018-04-08T14:38:19.411Z,22.00
2018-04-08T14:42:22.323Z,22.70
2018-04-08T14:46:25.229Z,23.10
2018-04-08T14:50:29.042Z,21.60
2018-04-08T14:54:31.823Z,21.50
2018-04-08T14:58:34.780Z,22.80
2018-04-08T15:02:37.605Z,22.50
2018-04-08T15:06:40.539Z,23.20
2018-04-08T15:10:43.362Z,22.40
2018-04-08T15:14:47.130Z,26.10
2018-04-08T15:18:50.037Z,26.10
2018-04-08T15:22:52.859Z,26.40
2018-04-08T15:26:55.626Z,25.70
2018-04-08T15:30:58.363Z,25.50
2018-04-08T15:35:01.142Z,25.10
2018-04-08T15:39:04.147Z,25.50
2018-04-08T15:43:06.954Z,27.10
2018-04-08T15:47:09.736Z,28.10
2018-04-08T15:51:12.531Z,30.50
2018-04-08T15:55:15.267Z,31.80
2018-04-08T15:59:18.889Z,33.00
2018-04-08T16:03:23.463Z,32.70
2018-04-08T16:07:26.584Z,32.80
2018-04-08T16:11:29.344Z,33.50
2018-04-08T16:15:32.123Z,31.90
2018-04-08T16:19:35.717Z,35.90
2018-04-08T16:23:39.269Z,37.00
2018-04-08T16:27:42.136Z,36.90
2018-04-08T16:31:45.780Z,36.70
2018-04-08T16:35:48.519Z,36.50
2018-04-08T16:39:51.333Z,37.50
2018-04-08T16:43:54.099Z,38.70
2018-04-08T16:47:56.936Z,41.30
2018-04-08T16:51:59.721Z,42.60
2018-04-08T16:56:03.293Z,45.20
2018-04-08T17:00:06.070Z,45.40
2018-04-08T17:04:09.670Z,47.00
2018-04-08T17:08:13.268Z,46.80
2018-04-08T17:12:16.069Z,46.80
2018-04-08T17:16:18.827Z,48.50
2018-04-08T17:20:21.593Z,49.60
2018-04-08T17:24:25.209Z,51.60
2018-04-08T17:28:28.775Z,51.70
2018-04-08T17:32:31.718Z,51.70
2018-04-08T17:36:34.558Z,51.80
2018-04-08T17:40:37.409Z,53.50
2018-04-08T17:44:43.732Z,53.10
2018-04-08T17:48:47.647Z,53.10
2018-04-08T17:52:50.443Z,55.50
2018-04-08T17:56:53.583Z,56.60
2018-04-08T18:00:56.488Z,55.70
2018-04-08T18:04:59.346Z,55.10
2018-04-08T18:09:02.111Z,55.00
2018-04-08T18:13:05.084Z,55.00
2018-04-08T18:17:11.618Z,55.90
2018-04-08T18:21:15.451Z,56.50
2018-04-08T18:25:18.967Z,56.50
2018-04-08T18:29:22.673Z,56.10
2018-04-08T18:33:26.591Z,57.80
2018-04-08T18:37:30.273Z,58.50
2018-04-08T18:41:33.941Z,58.50
2018-04-08T18:45:36.985Z,57.20
2018-04-08T18:49:39.852Z,57.40
2018-04-08T18:53:42.932Z,57.70
2018-04-08T18:57:45.799Z,57.50
2018-04-08T19:01:48.580Z,58.50
2018-04-08T19:05:51.787Z,59.80
2018-04-08T19:09:54.773Z,59.00
2018-04-08T19:13:58.465Z,60.50
2018-04-08T19:18:03.082Z,61.50
2018-04-08T19:22:06.857Z,62.20
2018-04-08T19:26:10.530Z,60.90
2018-04-08T19:30:19.615Z,62.00
2018-04-08T19:34:22.654Z,62.00
2018-04-08T19:38:25.759Z,61.90
2018-04-08T19:42:28.493Z,61.50
2018-04-08T19:46:31.391Z,61.70
2018-04-08T19:50:34.423Z,62.90
2018-04-08T19:54:37.287Z,63.70
2018-04-08T19:58:41.387Z,62.60
2018-04-08T20:02:44.228Z,63.10
2018-04-08T20:06:47.310Z,63.50
2018-04-08T20:10:53.131Z,65.20
2018-04-08T20:14:57.461Z,65.40
2018-04-08T20:19:00.845Z,66.00
2018-04-08T20:23:05.697Z,65.60
2018-04-08T20:27:10.118Z,66.30
2018-04-08T20:31:15.415Z,66.20
2018-04-08T20:35:20.295Z,66.60
2018-04-08T20:39:26.039Z,66.70
2018-04-08T20:43:32.501Z,65.90
2018-04-08T20:47:37.561Z,66.50
2018-04-08T20:51:42.646Z,67.40
2018-04-08T20:55:46.253Z,68.00
2018-04-08T20:59:49.894Z,68.20
2018-04-08T21:03:52.614Z,68.20
2018-04-08T21:07:56.171Z,69.50
2018-04-08T21:11:59.831Z,69.70
2018-04-08T21:16:02.543Z,69.70
2018-04-08T21:20:05.306Z,70.80
2018-04-08T21:24:08.220Z,69.60
2018-04-08T21:28:10.953Z,69.50
2018-04-08T21:32:15.004Z,68.90
2018-04-08T21:36:18.609Z,68.80
2018-04-08T21:40:21.421Z,68.80
2018-04-08T21:44:25.004Z,70.00
2018-04-08T21:48:27.816Z,70.00
2018-04-08T21:52:30.548Z,70.10
2018-04-08T21:56:33.278Z,70.20
2018-04-08T22:00:36.045Z,70.30
2018-04-08T22:04:38.872Z,70.80
2018-04-08T22:08:41.626Z,70.60
2018-04-08T22:12:45.172Z,71.30
2018-04-08T22:16:47.905Z,71.30
2018-04-08T22:20:50.750Z,71.30
2018-04-08T22:24:53.489Z,72.50
2018-04-08T22:28:56.330Z,71.70
2018-04-08T22:32:59.924Z,72.60
2018-04-08T22:37:02.839Z,72.60
2018-04-08T22:41:06.427Z,73.10
2018-04-08T22:45:09.386Z,73.10
2018-04-08T22:49:12.125Z,72.40
2018-04-08T22:53:14.918Z,72.80
2018-04-08T22:57:17.672Z,73.60
2018-04-08T23:01:20.455Z,73.10
2018-04-08T23:05:23.956Z,73.90
2018-04-08T23:09:26.783Z,74.00
2018-04-08T23:13:29.530Z,73.70
2018-04-08T23:17:32.338Z,73.90
2018-04-08T23:21:35.277Z,74.20
2018-04-08T23:25:38.029Z,74.20
2018-04-08T23:29:41.877Z,74.90
2018-04-08T23:33:45.394Z,75.00
2018-04-08T23:37:51.091Z,74.40
2018-04-08T23:41:53.872Z,74.40
2018-04-08T23:45:56.686Z,74.30
2018-04-08T23:50:00.645Z,74.60
2018-04-08T23:54:03.415Z,74.30
2018-04-08T23:58:06.165Z,74.60
